MDT,Max TemperatureF,Mean TemperatureF,Min TemperatureF,Max Dew PointF,MeanDew PointF,Min DewpointF,Max Humidity, Mean Humidity, Min Humidity, Max Sea Level PressureIn, Mean Sea Level PressureIn, Min Sea Level PressureIn, Max VisibilityMiles, Mean VisibilityMiles, Min VisibilityMiles, Max Wind SpeedMPH, Mean Wind SpeedMPH, Max Gust SpeedMPH,PrecipitationIn, CloudCover, Events, WindDirDegrees
2013-4-1,46,37,27,30,26,24,96,78,47,30.24,30.18,30.04,10,8,1,21,13,21,0.00,5,,83
2013-4-2,38,34,30,34,28,21,100,81,60,30.23,30.19,30.14,10,8,3,17,12,,T,8,,163
2013-4-3,47,39,30,30,28,26,89,71,50,30.24,30.19,30.12,10,10,6,20,12,25,0.00,5,,187
2013-4-4,70,49,27,37,31,24,89,53,25,30.16,30.07,29.99,10,10,10,18,10,,0.00,0,,315
2013-4-5,76,61,45,38,27,19,51,33,13,29.97,29.74,29.53,10,10,10,32,17,45,0.00,1,,210
2013-4-6,68,55,42,35,27,21,71,36,17,29.82,29.78,29.65,10,10,10,28,17,33,0.00,1,,327
2013-4-7,70,55,40,37,31,23,79,45,18,29.81,29.67,29.60,10,10,10,21,10,25,0.00,2,,249
2013-4-8,75,55,34,53,41,28,86,57,25,29.62,29.47,29.28,10,10,10,32,14,45,0.00,1,Thunderstorm,137
2013-4-9,36,24,11,39,14,7,93,84,77,30.21,29.95,29.50,10,3,0,33,26,63,T,8,Rain-Snow,349
2013-4-10,25,18,11,15,11,6,85,72,59,30.24,30.11,29.95,10,9,3,29,21,37,T,6,Snow,334
2013-4-11,52,34,15,31,22,10,85,64,43,30.02,29.85,29.78,10,10,10,31,12,39,0.00,2,,311
2013-4-12,59,42,25,38,32,23,100,78,33,30.03,29.95,29.86,10,8,0,30,11,39,0.05,5,Fog-Rain-Thunderstorm,5
2013-4-13,74,52,30,37,31,15,100,68,11,30.00,29.70,29.25,10,8,0,29,13,38,0.00,4,Fog,200
2013-4-14,56,45,33,39,15,2,71,31,12,29.75,29.53,29.23,10,10,10,37,18,48,0.00,3,,335
2013-4-15,54,42,29,23,19,13,69,45,27,30.01,29.83,29.72,10,10,10,26,10,31,0.00,2,,64
2013-4-16,44,37,30,25,24,21,82,64,47,30.11,30.01,29.93,10,10,10,28,15,34,0.00,8,,99
2013-4-17,33,28,23,30,25,19,100,89,70,30.09,29.94,29.86,10,3,0,30,18,41,0.03,8,Fog-Rain-Snow,19
2013-4-18,33,26,19,20,18,14,93,74,54,30.21,30.11,30.01,10,8,2,33,22,44,0.01,5,,332
2013-4-19,59,40,20,25,20,13,78,49,22,30.20,30.07,29.98,10,10,10,25,14,34,0.00,3,,317
2013-4-20,61,44,26,30,26,24,96,55,25,29.98,29.92,29.85,10,10,8,15,9,20,0.00,1,,114
2013-4-21,67,50,33,33,29,26,79,45,23,30.03,29.97,29.94,10,10,10,16,7,24,0.00,3,,343
2013-4-22,61,42,23,40,29,21,93,82,48,30.27,30.07,29.81,10,5,0,36,17,45,0.06,6,Fog-Snow,20
2013-4-23,29,22,15,21,18,8,93,82,63,30.35,30.26,30.17,10,4,0,24,17,30,0.05,6,Fog,348
2013-4-24,54,35,16,32,23,10,81,60,31,30.31,30.24,30.19,10,10,10,17,11,22,0.00,0,,269
2013-4-25,69,51,32,43,31,23,71,48,24,30.22,30.00,29.84,10,10,10,38,15,48,0.06,1,Rain,188
2013-4-26,74,56,37,40,29,16,82,44,13,30.13,30.00,29.87,10,10,10,22,12,30,0.00,0,,29
2013-4-27,78,57,36,38,26,16,79,40,10,30.14,30.00,29.89,10,10,10,18,9,24,0.00,0,,271
2013-4-28,85,64,42,34,24,15,58,28,8,29.89,29.78,29.68,10,10,10,20,11,26,0.00,0,,270
2013-4-29,83,64,45,37,32,25,63,34,13,29.76,29.62,29.44,10,10,10,18,12,28,0.00,0,,156
2013-4-30,69,58,47,39,34,22,66,43,31,29.81,29.63,29.42,10,10,10,31,17,40,0.00,1,,28